Wetterdaten: Woche 18.10.10 - 24.10.10 (KW42)
Datum Zeit Temp. A. Feuchte A. Luftdruck Regen Wind Richtung Taupunkt Windchill Windben
18.10.2010 00:00 6,2 C 85 % 1017,5 hPa 0,8 l/m 0,3 km/h N 3,9 C 6,2 C 2,0 km/h
18.10.2010 01:00 6,1 C 85 % 1017,5 hPa 0,5 l/m 0,5 km/h N 3,8 C 6,1 C 3,2 km/h
18.10.2010 02:00 6,1 C 85 % 1017,4 hPa 0,0 l/m 0,4 km/h N 3,7 C 6,1 C 2,0 km/h
18.10.2010 03:00 5,9 C 85 % 1017,3 hPa 0,0 l/m 0,7 km/h N-NW 3,6 C 5,9 C 3,2 km/h
18.10.2010 04:00 5,9 C 85 % 1017,3 hPa 0,0 l/m 0,7 km/h N 3,6 C 5,9 C 2,8 km/h
18.10.2010 05:00 5,8 C 85 % 1017,5 hPa 0,0 l/m 0,7 km/h N 3,5 C 5,8 C 2,8 km/h
18.10.2010 06:00 5,9 C 85 % 1017,7 hPa 0,0 l/m 0,5 km/h N 3,6 C 5,9 C 2,4 km/h
18.10.2010 07:00 5,9 C 85 % 1017,8 hPa 0,0 l/m 0,7 km/h N 3,6 C 5,9 C 2,8 km/h
18.10.2010 08:00 5,9 C 85 % 1018,5 hPa 0,0 l/m 1,3 km/h N-NW 3,6 C 5,9 C 5,6 km/h
18.10.2010 09:00 6,0 C 85 % 1019,0 hPa 0,0 l/m 1,9 km/h N-NW 3,7 C 6,0 C 7,2 km/h
18.10.2010 10:00 6,1 C 85 % 1019,3 hPa 0,0 l/m 2,0 km/h N-NW 3,8 C 6,1 C 5,6 km/h
18.10.2010 11:00 6,3 C 85 % 1019,3 hPa 0,0 l/m 2,1 km/h N-NW 4,0 C 6,3 C 7,6 km/h
18.10.2010 12:00 6,7 C 85 % 1019,2 hPa 0,0 l/m 2,7 km/h NW 4,4 C 6,7 C 8,4 km/h
18.10.2010 13:00 7,1 C 85 % 1018,7 hPa 0,0 l/m 3,7 km/h N-NW 4,8 C 7,1 C 11,3 km/h
18.10.2010 14:00 7,5 C 85 % 1018,6 hPa 0,0 l/m 3,5 km/h NW 5,1 C 7,5 C 10,5 km/h
18.10.2010 15:00 7,6 C 84 % 1018,3 hPa 0,0 l/m 4,7 km/h NW 5,1 C 7,6 C 10,1 km/h
18.10.2010 16:00 7,5 C 84 % 1017,9 hPa 0,0 l/m 4,9 km/h NW 5,0 C 7,4 C 14,1 km/h
18.10.2010 17:00 7,6 C 84 % 1017,9 hPa 0,0 l/m 1,9 km/h N-NW 5,0 C 7,6 C 7,6 km/h
18.10.2010 18:00 7,6 C 84 % 1018,2 hPa 0,0 l/m 1,2 km/h NW 5,1 C 7,6 C 6,4 km/h
18.10.2010 19:00 7,6 C 84 % 1017,9 hPa 0,0 l/m 2,8 km/h NW 5,0 C 7,6 C 8,0 km/h
18.10.2010 20:00 7,5 C 84 % 1017,9 hPa 0,0 l/m 2,2 km/h N-NW 5,0 C 7,5 C 7,6 km/h
18.10.2010 21:00 7,5 C 83 % 1018,2 hPa 0,0 l/m 2,2 km/h NW 4,8 C 7,5 C 8,8 km/h
18.10.2010 22:00 7,4 C 83 % 1018,0 hPa 0,0 l/m 2,0 km/h N-NW 4,6 C 7,4 C 7,2 km/h
18.10.2010 23:00 7,1 C 83 % 1017,5 hPa 0,0 l/m 1,8 km/h N-NW 4,4 C 7,1 C 6,4 km/h
19.10.2010 00:00 7,1 C 84 % 1016,9 hPa 0,0 l/m 2,0 km/h N-NW 4,6 C 7,1 C 6,4 km/h
19.10.2010 01:00 7,3 C 84 % 1016,4 hPa 0,0 l/m 2,7 km/h NW 4,8 C 7,3 C 7,6 km/h
19.10.2010 02:00 7,5 C 84 % 1016,0 hPa 0,0 l/m 3,1 km/h N-NW 5,0 C 7,5 C 9,3 km/h
19.10.2010 03:00 7,6 C 84 % 1015,3 hPa 0,0 l/m 3,3 km/h NW 5,0 C 7,6 C 11,3 km/h
19.10.2010 04:00 7,5 C 84 % 1014,9 hPa 0,0 l/m 2,0 km/h N-NW 5,0 C 7,5 C 6,4 km/h
19.10.2010 05:00 7,4 C 83 % 1014,7 hPa 0,0 l/m 1,7 km/h N-NW 4,7 C 7,4 C 5,2 km/h
19.10.2010 06:00 7,2 C 83 % 1014,3 hPa 0,0 l/m 1,8 km/h N-NW 4,5 C 7,2 C 5,2 km/h
19.10.2010 07:00 7,1 C 83 % 1013,9 hPa 0,0 l/m 2,2 km/h N-NW 4,4 C 7,1 C 8,5 km/h
19.10.2010 08:00 7,3 C 82 % 1013,6 hPa 0,0 l/m 2,5 km/h N-NW 4,4 C 7,3 C 7,6 km/h
19.10.2010 09:00 7,7 C 80 % 1013,2 hPa 0,0 l/m 2,4 km/h N-NW 4,5 C 7,7 C 8,4 km/h
19.10.2010 10:00 8,4 C 78 % 1012,9 hPa 0,0 l/m 5,1 km/h N-NW 4,7 C 8,0 C 14,1 km/h
19.10.2010 11:00 8,7 C 75 % 1012,4 hPa 0,0 l/m 8,7 km/h NO 4,5 C 7,2 C 12,1 km/h
19.10.2010 12:00 9,1 C 73 % 1011,5 hPa 0,0 l/m 4,9 km/h N-NW 4,6 C 9,0 C 14,1 km/h
19.10.2010 13:00 9,5 C 70 % 1010,6 hPa 0,0 l/m 3,9 km/h NW 4,3 C 9,5 C 20,5 km/h
19.10.2010 14:00 10,1 C 66 % 1009,6 hPa 0,0 l/m 4,9 km/h N-NW 4,0 C 10,0 C 18,1 km/h
19.10.2010 15:00 10,2 C 65 % 1008,7 hPa 0,0 l/m 4,6 km/h NW 4,0 C 10,2 C 18,9 km/h
19.10.2010 16:00 10,2 C 63 % 1008,1 hPa 0,0 l/m 5,5 km/h SO 3,5 C 10,2 C 18,5 km/h
19.10.2010 17:00 10,1 C 65 % 1007,7 hPa 0,0 l/m 3,8 km/h W-NW 3,8 C 10,1 C 18,1 km/h
19.10.2010 18:00 9,9 C 66 % 1007,5 hPa 0,0 l/m 1,2 km/h SW 3,9 C 9,9 C 6,8 km/h
19.10.2010 19:00 9,3 C 69 % 1007,4 hPa 0,0 l/m 1,8 km/h N 3,9 C 9,3 C 8,4 km/h
19.10.2010 20:00 8,4 C 74 % 1006,9 hPa 0,0 l/m 3,7 km/h N-NW 4,1 C 8,4 C 8,4 km/h
19.10.2010 21:00 7,7 C 77 % 1006,7 hPa 0,0 l/m 2,9 km/h N-NW 3,8 C 7,7 C 7,2 km/h
19.10.2010 22:00 7,3 C 77 % 1006,3 hPa 0,0 l/m 0,5 km/h N 3,6 C 7,3 C 2,4 km/h
19.10.2010 23:00 5,9 C 79 % 1005,9 hPa 0,0 l/m 0,2 km/h N 2,5 C 5,9 C 3,2 km/h
20.10.2010 00:00 7,8 C 77 % 1005,2 hPa 0,0 l/m 1,9 km/h W-NW 3,9 C 7,8 C 12,5 km/h
20.10.2010 01:00 9,5 C 69 % 1004,8 hPa 0,0 l/m 3,1 km/h O-NO 4,0 C 9,5 C 16,5 km/h
20.10.2010 02:00 9,4 C 71 % 1004,4 hPa 0,0 l/m 2,5 km/h W-SW 4,4 C 9,4 C 16,5 km/h
20.10.2010 03:00 8,9 C 73 % 1004,2 hPa 0,0 l/m 1,3 km/h S-SW 4,3 C 8,9 C 12,4 km/h
20.10.2010 04:00 8,6 C 74 % 1003,9 hPa 0,0 l/m 1,5 km/h S 4,3 C 8,6 C 9,3 km/h
20.10.2010 05:00 8,3 C 76 % 1004,1 hPa 0,0 l/m 0,2 km/h N 4,3 C 8,3 C 4,4 km/h
20.10.2010 06:00 7,2 C 77 % 1004,1 hPa 0,0 l/m 0,1 km/h N 3,3 C 7,2 C 0,8 km/h
20.10.2010 07:00 5,8 C 81 % 1005,0 hPa 0,0 l/m 0,0 km/h N 2,7 C 5,8 C 1,2 km/h
20.10.2010 08:00 6,8 C 84 % 1005,6 hPa 0,0 l/m 1,6 km/h W-NW 4,2 C 6,8 C 9,6 km/h
20.10.2010 09:00 8,5 C 76 % 1006,3 hPa 0,0 l/m 3,4 km/h SW 4,5 C 8,5 C 18,9 km/h
20.10.2010 10:00 8,3 C 74 % 1007,0 hPa 0,0 l/m 4,8 km/h W 3,9 C 8,3 C 18,5 km/h
20.10.2010 11:00 8,1 C 75 % 1007,4 hPa 0,0 l/m 4,3 km/h NW 3,9 C 8,1 C 20,5 km/h
20.10.2010 12:00 8,4 C 73 % 1007,2 hPa 0,0 l/m 3,5 km/h S-SW 3,8 C 8,4 C 16,5 km/h
20.10.2010 13:00 8,9 C 70 % 1007,3 hPa 0,0 l/m 5,3 km/h O 3,7 C 8,9 C 18,1 km/h
20.10.2010 14:00 9,1 C 67 % 1007,0 hPa 0,0 l/m 5,9 km/h SW 3,4 C 9,1 C 19,7 km/h
20.10.2010 15:00 9,0 C 66 % 1007,2 hPa 0,0 l/m 4,5 km/h S-SW 3,0 C 8,8 C 19,3 km/h
20.10.2010 16:00 9,3 C 66 % 1007,6 hPa 0,0 l/m 6,1 km/h SW 3,2 C 8,9 C 21,7 km/h
20.10.2010 17:00 9,0 C 66 % 1008,1 hPa 0,0 l/m 4,0 km/h S 2,9 C 9,0 C 20,9 km/h
20.10.2010 18:00 8,2 C 69 % 1009,1 hPa 0,0 l/m 1,3 km/h W-SW 2,9 C 8,2 C 10,0 km/h
20.10.2010 19:00 7,8 C 72 % 1010,3 hPa 0,0 l/m 5,8 km/h W-SW 2,9 C 7,5 C 21,7 km/h
20.10.2010 20:00 7,6 C 72 % 1010,9 hPa 0,0 l/m 4,3 km/h W-SW 3,0 C 7,6 C 20,1 km/h
20.10.2010 21:00 7,5 C 73 % 1011,6 hPa 0,0 l/m 4,7 km/h O 3,0 C 7,5 C 18,9 km/h
20.10.2010 22:00 7,5 C 73 % 1012,5 hPa 0,0 l/m 3,8 km/h SW 3,0 C 7,5 C 18,5 km/h
20.10.2010 23:00 7,6 C 72 % 1013,1 hPa 0,0 l/m 3,6 km/h W-SW 2,8 C 7,6 C 19,7 km/h
21.10.2010 00:00 7,4 C 75 % 1013,4 hPa 0,5 l/m 5,0 km/h NW 3,2 C 7,4 C 18,1 km/h
21.10.2010 01:00 6,4 C 81 % 1014,3 hPa 0,5 l/m 4,2 km/h S-SO 3,4 C 6,4 C 18,5 km/h
21.10.2010 02:00 5,9 C 81 % 1015,1 hPa 0,0 l/m 1,9 km/h NO 2,9 C 5,9 C 11,7 km/h
21.10.2010 03:00 5,8 C 79 % 1015,3 hPa 0,0 l/m 3,4 km/h SW 2,5 C 5,8 C 16,9 km/h
21.10.2010 04:00 6,3 C 78 % 1016,0 hPa 0,0 l/m 3,8 km/h W-SW 2,7 C 6,3 C 16,9 km/h
21.10.2010 05:00 5,7 C 77 % 1017,3 hPa 0,0 l/m 3,2 km/h W-SW 2,0 C 5,7 C 15,7 km/h
21.10.2010 06:00 5,3 C 77 % 1018,4 hPa 0,0 l/m 2,4 km/h SW 1,5 C 5,3 C 11,6 km/h
21.10.2010 07:00 5,1 C 76 % 1019,1 hPa 0,0 l/m 3,5 km/h S 1,1 C 5,1 C 18,1 km/h
21.10.2010 08:00 5,4 C 71 % 1020,2 hPa 0,3 l/m 6,1 km/h W-NW 0,6 C 5,2 C 23,7 km/h
21.10.2010 09:00 6,0 C 68 % 1021,5 hPa 0,0 l/m 6,6 km/h W-SW 0,5 C 5,6 C 22,1 km/h
21.10.2010 10:00 6,8 C 63 % 1022,2 hPa 0,0 l/m 7,6 km/h SW 0,4 C 5,7 C 27,8 km/h
21.10.2010 11:00 7,5 C 59 % 1022,7 hPa 0,0 l/m 8,3 km/h W -0,0 C 6,1 C 29,8 km/h
21.10.2010 12:00 8,5 C 54 % 1023,4 hPa 0,0 l/m 9,6 km/h W -0,4 C 6,2 C 31,8 km/h
21.10.2010 13:00 8,8 C 52 % 1023,2 hPa 0,0 l/m 11,0 km/h NW -0,5 C 5,7 C 39,0 km/h
21.10.2010 14:00 8,9 C 52 % 1023,4 hPa 0,0 l/m 11,1 km/h NW -0,3 C 5,8 C 32,6 km/h
21.10.2010 15:00 9,1 C 52 % 1023,9 hPa 0,0 l/m 11,0 km/h W -0,2 C 6,0 C 31,4 km/h
21.10.2010 16:00 8,3 C 57 % 1024,6 hPa 0,0 l/m 8,1 km/h S-SW 0,1 C 7,0 C 27,4 km/h
21.10.2010 17:00 7,4 C 61 % 1025,5 hPa 0,0 l/m 5,0 km/h S 0,3 C 7,4 C 23,3 km/h
21.10.2010 18:00 6,5 C 66 % 1026,2 hPa 0,0 l/m 2,9 km/h S-SO 0,5 C 6,5 C 13,3 km/h
21.10.2010 19:00 5,9 C 69 % 1026,4 hPa 0,0 l/m 2,9 km/h W-SW 0,5 C 5,9 C 15,3 km/h
21.10.2010 20:00 6,1 C 67 % 1026,4 hPa 0,0 l/m 3,9 km/h S-SW 0,3 C 6,1 C 19,7 km/h
21.10.2010 21:00 6,1 C 64 % 1026,6 hPa 0,0 l/m 2,2 km/h SW -0,3 C 6,1 C 15,7 km/h
21.10.2010 22:00 5,6 C 64 % 1027,3 hPa 0,0 l/m 0,5 km/h S-SO -0,6 C 5,6 C 4,4 km/h
21.10.2010 23:00 4,2 C 69 % 1027,4 hPa 0,0 l/m 0,4 km/h N -1,1 C 4,2 C 4,0 km/h
22.10.2010 00:00 2,6 C 73 % 1027,3 hPa 0,0 l/m 0,1 km/h N -1,8 C 2,6 C 1,2 km/h
22.10.2010 01:00 0,9 C 77 % 1027,0 hPa 0,0 l/m 0,0 km/h N -2,6 C 0,9 C 0,0 km/h
22.10.2010 02:00 -0,4 C 79 % 1026,6 hPa 0,0 l/m 0,0 km/h N -3,5 C -0,4 C 0,4 km/h
22.10.2010 03:00 -1,3 C 82 % 1025,8 hPa 0,0 l/m 0,0 km/h N -4,0 C -1,3 C 0,0 km/h
22.10.2010 04:00 -1,8 C 83 % 1025,1 hPa 0,0 l/m 0,0 km/h N -4,2 C -1,8 C 0,0 km/h
22.10.2010 05:00 -2,1 C 84 % 1024,4 hPa 0,0 l/m 0,0 km/h N -4,4 C -2,1 C 0,0 km/h
22.10.2010 06:00 -2,2 C 85 % 1024,2 hPa 0,0 l/m 0,0 km/h N -4,4 C -2,2 C 0,4 km/h
22.10.2010 07:00 -1,7 C 85 % 1024,0 hPa 0,0 l/m 0,0 km/h N -3,9 C -1,7 C 1,2 km/h
22.10.2010 08:00 -1,2 C 85 % 1024,5 hPa 0,0 l/m 0,0 km/h N -3,4 C -1,2 C 0,8 km/h
22.10.2010 09:00 0,5 C 85 % 1024,8 hPa 0,0 l/m 0,0 km/h N -1,7 C 0,5 C 0,8 km/h
22.10.2010 10:00 3,4 C 84 % 1024,9 hPa 0,0 l/m 0,6 km/h N-NO 1,0 C 3,4 C 4,0 km/h
22.10.2010 11:00 6,7 C 71 % 1024,7 hPa 0,0 l/m 1,8 km/h N-NO 1,8 C 6,7 C 5,2 km/h
22.10.2010 12:00 8,7 C 64 % 1024,3 hPa 0,0 l/m 1,3 km/h NO 2,2 C 8,7 C 4,8 km/h
22.10.2010 13:00 9,4 C 63 % 1023,8 hPa 0,0 l/m 0,7 km/h N 2,6 C 9,4 C 3,6 km/h
22.10.2010 14:00 10,1 C 59 % 1023,2 hPa 0,0 l/m 0,3 km/h N 2,5 C 10,1 C 3,2 km/h
22.10.2010 15:00 10,8 C 55 % 1022,6 hPa 0,0 l/m 0,2 km/h N 2,0 C 10,8 C 2,0 km/h
22.10.2010 16:00 10,9 C 53 % 1022,4 hPa 0,0 l/m 0,1 km/h N 1,7 C 10,9 C 1,2 km/h
22.10.2010 17:00 10,3 C 58 % 1022,4 hPa 0,0 l/m 0,0 km/h N 2,5 C 10,3 C 0,0 km/h
22.10.2010 18:00 8,5 C 67 % 1022,4 hPa 0,0 l/m 0,0 km/h N 2,7 C 8,5 C 0,4 km/h
22.10.2010 19:00 7,3 C 72 % 1022,4 hPa 0,0 l/m 0,0 km/h N 2,6 C 7,3 C 1,2 km/h
22.10.2010 20:00 6,5 C 75 % 1022,1 hPa 0,0 l/m 0,0 km/h N 2,4 C 6,5 C 0,0 km/h
22.10.2010 21:00 6,2 C 78 % 1022,2 hPa 0,0 l/m 0,1 km/h N 2,6 C 6,2 C 1,2 km/h
22.10.2010 22:00 6,1 C 79 % 1021,2 hPa 0,0 l/m 0,0 km/h N 2,7 C 6,1 C 0,4 km/h
22.10.2010 23:00 5,5 C 79 % 1021,3 hPa 0,0 l/m 0,0 km/h N 2,2 C 5,5 C 0,0 km/h
23.10.2010 00:00 4,6 C 81 % 1021,0 hPa 0,0 l/m 0,0 km/h N 1,6 C 4,6 C 0,0 km/h
23.10.2010 01:00 4,1 C 83 % 1020,8 hPa 0,0 l/m 0,0 km/h N 1,4 C 4,1 C 0,8 km/h
23.10.2010 02:00 3,3 C 83 % 1020,8 hPa 0,0 l/m 0,0 km/h N 0,7 C 3,3 C 0,4 km/h
23.10.2010 03:00 2,5 C 84 % 1020,3 hPa 0,0 l/m 0,0 km/h N 0,0 C 2,5 C 0,0 km/h
23.10.2010 04:00 1,7 C 84 % 1019,8 hPa 0,0 l/m 0,0 km/h N -0,7 C 1,7 C 0,0 km/h
23.10.2010 05:00 1,8 C 85 % 1019,6 hPa 0,0 l/m 0,0 km/h N -0,4 C 1,8 C 0,4 km/h
23.10.2010 06:00 2,1 C 85 % 1019,5 hPa 0,0 l/m 0,0 km/h N -0,1 C 2,1 C 0,0 km/h
23.10.2010 07:00 2,3 C 85 % 1019,3 hPa 0,0 l/m 0,0 km/h N 0,1 C 2,3 C 0,0 km/h
23.10.2010 08:00 2,8 C 85 % 1019,2 hPa 0,0 l/m 0,0 km/h N 0,5 C 2,8 C 0,0 km/h
23.10.2010 09:00 3,5 C 85 % 1019,0 hPa 0,0 l/m 0,0 km/h N 1,2 C 3,5 C 0,0 km/h
23.10.2010 10:00 4,1 C 85 % 1018,9 hPa 0,0 l/m 0,0 km/h N 1,8 C 4,1 C 1,2 km/h
23.10.2010 11:00 6,1 C 85 % 1018,7 hPa 0,0 l/m 0,1 km/h N 3,7 C 6,1 C 1,2 km/h
23.10.2010 12:00 8,5 C 82 % 1017,8 hPa 0,0 l/m 0,1 km/h N 5,6 C 8,5 C 2,0 km/h
23.10.2010 13:00 9,5 C 79 % 1017,2 hPa 0,0 l/m 0,2 km/h N 6,0 C 9,5 C 3,2 km/h
23.10.2010 14:00 10,4 C 76 % 1016,6 hPa 0,0 l/m 0,3 km/h N 6,3 C 10,4 C 2,8 km/h
23.10.2010 15:00 10,1 C 76 % 1016,0 hPa 0,0 l/m 1,0 km/h O 6,1 C 10,1 C 4,0 km/h
23.10.2010 16:00 9,2 C 80 % 1015,6 hPa 0,0 l/m 0,3 km/h N 5,8 C 9,2 C 2,4 km/h
23.10.2010 17:00 8,7 C 81 % 1015,3 hPa 0,0 l/m 0,0 km/h N 5,5 C 8,7 C 1,2 km/h
23.10.2010 18:00 7,7 C 81 % 1014,9 hPa 0,0 l/m 0,0 km/h N 4,6 C 7,7 C 0,0 km/h
23.10.2010 19:00 6,3 C 82 % 1014,7 hPa 0,0 l/m 0,0 km/h N 3,5 C 6,3 C 0,0 km/h
23.10.2010 20:00 5,4 C 84 % 1014,4 hPa 0,0 l/m 0,0 km/h N 2,9 C 5,4 C 0,0 km/h
23.10.2010 21:00 4,7 C 84 % 1013,9 hPa 0,0 l/m 0,0 km/h N 2,2 C 4,7 C 0,0 km/h
23.10.2010 22:00 3,9 C 85 % 1013,5 hPa 0,0 l/m 0,0 km/h N 1,6 C 3,9 C 0,8 km/h
23.10.2010 23:00 3,7 C 85 % 1013,1 hPa 0,0 l/m 0,0 km/h N 1,4 C 3,7 C 0,4 km/h
24.10.2010 00:00 3,5 C 85 % 1012,5 hPa 0,0 l/m 0,0 km/h N 1,2 C 3,5 C 0,0 km/h
24.10.2010 01:00 2,8 C 85 % 1012,1 hPa 0,0 l/m 0,0 km/h N 0,5 C 2,8 C 0,0 km/h
24.10.2010 02:00 2,3 C 85 % 1011,6 hPa 0,0 l/m 0,0 km/h N -0,0 C 2,3 C 0,0 km/h
24.10.2010 03:00 2,9 C 85 % 1011,0 hPa 0,0 l/m 0,0 km/h N 0,6 C 2,9 C 0,8 km/h
24.10.2010 04:00 3,9 C 85 % 1010,6 hPa 0,0 l/m 0,0 km/h N 1,6 C 3,9 C 0,0 km/h
24.10.2010 05:00 4,0 C 85 % 1010,2 hPa 0,0 l/m 0,0 km/h N 1,7 C 4,0 C 0,0 km/h
24.10.2010 06:00 4,4 C 85 % 1009,9 hPa 0,0 l/m 0,3 km/h N 2,1 C 4,4 C 2,8 km/h
24.10.2010 07:00 4,3 C 85 % 1010,0 hPa 0,0 l/m 0,3 km/h N 2,0 C 4,3 C 3,2 km/h
24.10.2010 08:00 4,6 C 85 % 1010,1 hPa 0,0 l/m 0,3 km/h N 2,3 C 4,6 C 2,8 km/h
24.10.2010 09:00 5,3 C 85 % 1010,5 hPa 0,0 l/m 0,0 km/h N 2,9 C 5,3 C 1,6 km/h
24.10.2010 10:00 6,4 C 84 % 1010,8 hPa 0,0 l/m 0,0 km/h N 3,9 C 6,4 C 0,8 km/h
24.10.2010 11:00 7,1 C 84 % 1011,1 hPa 0,0 l/m 0,0 km/h N 4,6 C 7,1 C 0,8 km/h
24.10.2010 12:00 8,1 C 85 % 1011,1 hPa 0,0 l/m 0,0 km/h N 5,7 C 8,1 C 1,2 km/h
24.10.2010 13:00 10,0 C 83 % 1010,9 hPa 0,0 l/m 0,0 km/h N 7,3 C 10,0 C 1,2 km/h
24.10.2010 14:00 10,7 C 78 % 1011,0 hPa 0,0 l/m 0,3 km/h NW 7,0 C 10,7 C 3,2 km/h
24.10.2010 15:00 10,9 C 72 % 1011,2 hPa 0,0 l/m 1,7 km/h NW 6,0 C 10,9 C 6,8 km/h
24.10.2010 16:00 10,4 C 76 % 1011,8 hPa 0,0 l/m 0,6 km/h W-SW 6,2 C 10,4 C 6,9 km/h
24.10.2010 17:00 9,1 C 79 % 1011,6 hPa 0,0 l/m 0,4 km/h N 5,7 C 9,1 C 3,6 km/h
24.10.2010 18:00 8,6 C 81 % 1012,3 hPa 0,0 l/m 0,0 km/h N 5,6 C 8,6 C 1,2 km/h
24.10.2010 19:00 8,0 C 83 % 1013,1 hPa 0,0 l/m 0,1 km/h N 5,3 C 8,0 C 1,6 km/h
24.10.2010 20:00 7,6 C 84 % 1013,1 hPa 0,3 l/m 0,6 km/h N 5,1 C 7,6 C 6,8 km/h
24.10.2010 21:00 7,7 C 83 % 1013,1 hPa 0,0 l/m 0,1 km/h N 5,0 C 7,7 C 1,6 km/h
24.10.2010 22:00 7,7 C 84 % 1013,1 hPa 0,0 l/m 0,0 km/h N 5,0 C 7,7 C 0,8 km/h
24.10.2010 23:00 7,6 C 84 % 1013,1 hPa 0,0 l/m 0,1 km/h N 5,0 C 7,6 C 3,2 km/h
Min-Datum _ 22.10.10 22.10.10 20.10.10 - 19.10.10 - 22.10.10 22.10.10 19.10.10
_ Min-Zeit 06:15 16:00 04:30 - 22:30 - 06:15 06:15 22:30
Minimum _ -2,2 C 51 % 1003,8 hPa - 0,0 km/h - -4,5 C -2,2 C 0,0 km/h
Max-Datum _ 22.10.10 18.10.10 21.10.10 18.10.10 21.10.10 - 24.10.10 22.10.10 21.10.10
_ Max-Zeit 15:45 12:45 23:30 00:45 14:00 - 13:30 15:45 13:15
Maximum _ 11,1 C 86 % 1027,5 hPa 0,8 l/m 12,6 km/h
NW
- 7,5 C 11,1 C 43,5 km/h
W
Durchschnitt _ 6,6 C 77 % 1015,9 hPa #2,9 l/m 2,0 km/h N-NW 2,7 C 6,5 C 8,1 km/h